Didsbury, Canada
Current Conditions -  °F | °C
As of 4:00 PM on Friday 31 Oct 2014 (Local Time) from CYQF Reporting Station
Overcast Overcast  
Wind Chill:   Ceiling: 13000
Heat Index:   Visibility: 15mi
Dew Point:   Wind: 9mph
Humidity: 81%   Direction: 300°WNW
Pressure: 29.62"   Gusts: NA
Location:  51.67°N, 114.13°W
Report Text: CYQF 312200Z 30008KT 15SM OVC130 05/02 A2962 RMK AC8 SLP057
Loading
Personal Weather Stations






























Interactive Weather Map
Tropical Storm Tracking
New forecast layout! Learn more

10-Day Weather Forecast

Advertisements
Track Severe Weather on mobile